createdAt,value
2023-03-31T00:01:25.194Z,21.74
2023-03-31T00:04:33.759Z,21.74
2023-03-31T00:07:41.988Z,21.73
2023-03-31T00:10:49.286Z,21.73
2023-03-31T00:13:56.876Z,21.72
2023-03-31T00:17:06.246Z,21.73
2023-03-31T00:20:16.432Z,21.73
2023-03-31T00:23:29.241Z,21.75
2023-03-31T00:26:37.193Z,21.75
2023-03-31T00:29:45.322Z,21.76
2023-03-31T00:32:51.878Z,21.75
2023-03-31T00:36:08.290Z,21.70
2023-03-31T00:39:18.181Z,21.76
2023-03-31T00:42:33.123Z,21.74
2023-03-31T00:45:46.037Z,21.74
2023-03-31T00:48:59.676Z,21.72
2023-03-31T00:52:15.594Z,21.71
2023-03-31T00:55:27.010Z,21.71
2023-03-31T00:58:38.412Z,21.65
2023-03-31T01:01:52.387Z,21.69
2023-03-31T01:05:05.598Z,21.68
2023-03-31T01:08:27.870Z,21.69
2023-03-31T01:11:40.243Z,21.68
2023-03-31T01:14:47.192Z,21.67
2023-03-31T01:17:57.950Z,21.71
2023-03-31T01:21:57.568Z,21.69
2023-03-31T01:25:53.979Z,21.72
2023-03-31T01:29:14.725Z,21.63
2023-03-31T01:32:58.485Z,21.67
2023-03-31T01:36:40.263Z,21.72
2023-03-31T01:40:18.584Z,21.71
2023-03-31T01:43:28.580Z,21.71
2023-03-31T01:46:49.672Z,21.71
2023-03-31T01:50:04.221Z,21.71
2023-03-31T01:53:20.640Z,21.70
2023-03-31T01:56:38.302Z,21.70
2023-03-31T02:00:00.643Z,21.71
2023-03-31T02:03:15.221Z,21.70
2023-03-31T02:06:34.681Z,21.70
2023-03-31T02:09:48.263Z,21.70
2023-03-31T02:13:00.662Z,21.69
2023-03-31T02:16:18.453Z,21.69
2023-03-31T02:19:31.231Z,21.69
2023-03-31T02:22:42.865Z,21.69
2023-03-31T02:25:58.310Z,21.68
2023-03-31T02:29:08.935Z,21.70
2023-03-31T02:32:24.958Z,21.67
2023-03-31T02:35:34.558Z,21.70
2023-03-31T02:38:54.258Z,21.69
2023-03-31T02:42:04.242Z,21.69
2023-03-31T02:45:47.758Z,21.66
2023-03-31T02:49:03.900Z,21.69
2023-03-31T02:52:42.685Z,21.69
2023-03-31T02:56:08.427Z,21.69
2023-03-31T02:59:44.944Z,21.68
2023-03-31T03:03:16.852Z,21.64
2023-03-31T03:06:40.773Z,21.69
2023-03-31T03:10:02.632Z,21.61
2023-03-31T03:13:23.133Z,21.67
2023-03-31T03:16:40.330Z,21.59
2023-03-31T03:19:58.004Z,21.68
2023-03-31T03:23:08.733Z,21.67
2023-03-31T03:26:22.428Z,21.59
2023-03-31T03:29:40.375Z,21.67
2023-03-31T03:32:47.416Z,21.67
2023-03-31T03:35:54.274Z,21.70
2023-03-31T03:39:07.185Z,21.70
2023-03-31T03:42:19.605Z,21.70
2023-03-31T03:45:31.529Z,21.70
2023-03-31T03:48:37.745Z,21.68
2023-03-31T03:51:54.362Z,21.66
2023-03-31T03:54:59.032Z,21.66
2023-03-31T03:58:08.837Z,21.65
2023-03-31T04:01:18.206Z,21.63
2023-03-31T04:04:25.973Z,21.65
2023-03-31T04:07:35.321Z,21.65
2023-03-31T04:10:49.889Z,21.64
2023-03-31T04:13:56.275Z,21.57
2023-03-31T04:17:05.438Z,21.69
2023-03-31T04:20:21.119Z,21.74
2023-03-31T04:23:38.960Z,21.80
2023-03-31T04:26:46.524Z,21.68
2023-03-31T04:29:56.930Z,21.65
2023-03-31T04:33:03.487Z,21.64
2023-03-31T04:36:08.903Z,21.59
2023-03-31T04:39:26.123Z,21.55
2023-03-31T04:42:31.866Z,21.50
2023-03-31T04:45:40.089Z,21.51
2023-03-31T04:48:52.679Z,21.66
2023-03-31T04:52:01.305Z,21.61
2023-03-31T04:55:14.740Z,21.54
2023-03-31T04:58:25.758Z,21.51
2023-03-31T05:01:36.884Z,21.48
2023-03-31T05:04:51.542Z,21.45
2023-03-31T05:07:59.239Z,21.42
2023-03-31T05:11:07.300Z,21.17
2023-03-31T05:14:16.261Z,20.96
2023-03-31T05:17:20.588Z,20.82
2023-03-31T05:20:29.859Z,20.77
2023-03-31T05:23:37.110Z,20.70
2023-03-31T05:26:50.226Z,20.63
2023-03-31T05:30:00.957Z,20.63
2023-03-31T05:33:11.600Z,20.65
2023-03-31T05:36:21.766Z,20.63
2023-03-31T05:39:33.842Z,20.66
2023-03-31T05:42:43.681Z,20.66
2023-03-31T05:45:57.707Z,20.71
2023-03-31T05:49:06.456Z,21.10
2023-03-31T05:52:16.707Z,21.23
2023-03-31T05:55:25.708Z,21.36
2023-03-31T05:58:33.982Z,21.41
2023-03-31T06:01:45.299Z,21.44
2023-03-31T06:04:56.293Z,21.49
2023-03-31T06:08:07.996Z,21.52
2023-03-31T06:11:20.469Z,21.56
2023-03-31T06:14:34.982Z,21.58
2023-03-31T06:17:46.929Z,21.58
2023-03-31T06:20:55.921Z,21.56
2023-03-31T06:24:07.019Z,21.54
2023-03-31T06:27:19.140Z,21.54
2023-03-31T06:30:34.642Z,21.55
2023-03-31T06:33:48.450Z,21.48
2023-03-31T06:36:55.965Z,21.57
2023-03-31T06:40:08.261Z,21.58
2023-03-31T06:43:19.080Z,21.60
2023-03-31T06:46:34.091Z,21.59
2023-03-31T06:49:47.364Z,21.68
2023-03-31T06:53:01.188Z,21.66
2023-03-31T06:56:13.063Z,21.77
2023-03-31T06:59:25.142Z,21.75
2023-03-31T07:02:32.694Z,21.88
2023-03-31T07:05:44.049Z,21.94
2023-03-31T07:08:53.479Z,21.87
2023-03-31T07:12:10.378Z,21.87
2023-03-31T07:15:17.467Z,21.85
2023-03-31T07:18:35.373Z,21.79
2023-03-31T07:21:48.495Z,21.98
2023-03-31T07:24:59.225Z,22.06
2023-03-31T07:28:07.310Z,22.09
2023-03-31T07:31:23.059Z,22.09
2023-03-31T07:34:32.812Z,22.15
2023-03-31T07:37:46.561Z,22.15
2023-03-31T07:41:08.543Z,22.10
2023-03-31T07:44:21.572Z,22.13
2023-03-31T07:47:35.850Z,22.15
2023-03-31T07:50:48.079Z,22.16
2023-03-31T07:53:57.548Z,22.16
2023-03-31T07:57:12.377Z,22.22
2023-03-31T08:00:24.009Z,22.26
2023-03-31T08:03:38.296Z,22.30
2023-03-31T08:06:50.842Z,22.35
2023-03-31T08:10:01.881Z,22.36
2023-03-31T08:13:14.780Z,22.42
2023-03-31T08:16:27.877Z,22.40
2023-03-31T08:19:42.286Z,22.44
2023-03-31T08:22:52.276Z,22.42
2023-03-31T08:26:20.677Z,22.40
2023-03-31T08:29:29.521Z,22.36
2023-03-31T08:32:38.705Z,22.47
2023-03-31T08:35:49.673Z,22.51
2023-03-31T08:39:02.712Z,22.48
2023-03-31T08:42:17.116Z,22.44
2023-03-31T08:45:28.261Z,22.39
2023-03-31T08:48:46.909Z,22.32
2023-03-31T08:51:58.953Z,22.39
2023-03-31T08:55:16.550Z,22.39
2023-03-31T08:58:39.679Z,22.50
2023-03-31T09:02:00.777Z,22.41
2023-03-31T09:05:26.862Z,22.41
2023-03-31T09:08:39.919Z,22.42
2023-03-31T09:11:56.528Z,22.40
2023-03-31T09:15:08.636Z,22.38
2023-03-31T09:18:33.082Z,22.39
2023-03-31T09:21:48.818Z,22.36
2023-03-31T09:25:05.973Z,22.34
2023-03-31T09:28:26.620Z,22.23
2023-03-31T09:31:40.264Z,22.28
2023-03-31T09:34:49.531Z,22.28
2023-03-31T09:37:55.026Z,22.31
2023-03-31T09:41:03.233Z,22.31
2023-03-31T09:44:25.762Z,22.33
2023-03-31T09:47:44.734Z,22.38
2023-03-31T09:50:58.676Z,22.32
2023-03-31T09:54:13.252Z,22.41
2023-03-31T09:57:32.830Z,22.44
2023-03-31T10:00:46.982Z,22.44
2023-03-31T10:03:57.275Z,22.40
2023-03-31T10:07:07.376Z,22.45
2023-03-31T10:10:30.370Z,22.47
2023-03-31T10:13:45.978Z,22.45
2023-03-31T10:17:04.010Z,22.44
2023-03-31T10:20:25.226Z,22.37
2023-03-31T10:23:34.242Z,22.35
2023-03-31T10:26:50.557Z,22.35
2023-03-31T10:30:04.868Z,22.27
2023-03-31T10:33:23.070Z,22.37
2023-03-31T10:36:38.794Z,22.32
2023-03-31T10:39:48.630Z,22.38
2023-03-31T10:43:03.070Z,22.40
2023-03-31T10:46:07.660Z,22.36
2023-03-31T10:49:25.708Z,22.38
2023-03-31T10:52:31.846Z,22.37
2023-03-31T10:55:48.882Z,22.36
2023-03-31T10:59:09.040Z,22.34
2023-03-31T11:02:37.943Z,22.32
2023-03-31T11:05:54.511Z,22.31
2023-03-31T11:09:15.834Z,22.30
2023-03-31T11:12:29.410Z,22.26
2023-03-31T11:15:46.217Z,22.22
2023-03-31T11:19:17.592Z,22.24
2023-03-31T11:22:36.930Z,22.16
2023-03-31T11:25:48.436Z,22.19
2023-03-31T11:29:07.229Z,22.17
2023-03-31T11:32:38.339Z,22.11
2023-03-31T11:36:08.159Z,22.07
2023-03-31T11:39:29.197Z,22.20
2023-03-31T11:42:40.716Z,22.20
2023-03-31T11:45:58.327Z,22.19
2023-03-31T11:49:11.114Z,22.21
2023-03-31T11:52:20.398Z,22.18
2023-03-31T11:55:33.518Z,22.19
2023-03-31T11:58:47.560Z,22.19
2023-03-31T12:02:04.600Z,22.20
2023-03-31T12:05:17.400Z,22.14
2023-03-31T12:08:32.850Z,22.23
2023-03-31T12:11:48.743Z,22.26
2023-03-31T12:15:05.177Z,22.28
2023-03-31T12:18:18.362Z,22.34
2023-03-31T12:21:37.924Z,22.36
2023-03-31T12:24:49.922Z,22.39
2023-03-31T12:28:02.991Z,22.36
2023-03-31T12:31:18.973Z,22.30
2023-03-31T12:34:32.415Z,22.28
2023-03-31T12:38:14.876Z,22.32
2023-03-31T12:41:28.471Z,22.32
2023-03-31T12:44:57.216Z,22.31
2023-03-31T12:48:41.334Z,22.33
2023-03-31T12:52:04.951Z,22.35
2023-03-31T12:55:40.952Z,22.34
2023-03-31T12:58:53.092Z,22.37
2023-03-31T13:02:31.109Z,22.41
2023-03-31T13:05:51.871Z,22.43
2023-03-31T13:08:59.972Z,22.16
2023-03-31T13:12:17.599Z,22.42
2023-03-31T13:15:22.031Z,22.45
2023-03-31T13:18:30.924Z,22.45
2023-03-31T13:21:59.834Z,22.37
2023-03-31T13:25:46.371Z,22.46
2023-03-31T13:29:16.544Z,22.45
2023-03-31T13:32:27.362Z,22.44
2023-03-31T13:35:36.551Z,22.40
2023-03-31T13:38:59.645Z,22.44
2023-03-31T13:42:25.993Z,22.44
2023-03-31T13:45:51.259Z,22.34
2023-03-31T13:49:18.213Z,22.47
2023-03-31T13:52:38.768Z,22.41
2023-03-31T13:56:06.296Z,22.47
2023-03-31T13:59:47.930Z,22.42
2023-03-31T14:03:25.351Z,22.40
2023-03-31T14:06:43.706Z,22.39
2023-03-31T14:09:57.756Z,22.41
2023-03-31T14:13:28.880Z,22.34
2023-03-31T14:16:43.575Z,22.39
2023-03-31T14:20:10.020Z,22.45
2023-03-31T14:23:33.057Z,22.44
2023-03-31T14:26:48.752Z,22.45
2023-03-31T14:30:07.897Z,22.47
2023-03-31T14:33:29.400Z,22.46
2023-03-31T14:36:42.842Z,22.45
2023-03-31T14:39:53.630Z,22.43
2023-03-31T14:43:01.291Z,22.47
2023-03-31T14:46:16.438Z,22.47
2023-03-31T14:49:25.069Z,22.46
2023-03-31T14:52:39.650Z,22.46
2023-03-31T14:55:58.035Z,22.41
2023-03-31T14:59:08.534Z,22.37
2023-03-31T15:02:25.113Z,22.39
2023-03-31T15:05:36.957Z,22.42
2023-03-31T15:08:46.542Z,22.47
2023-03-31T15:12:04.326Z,22.50
2023-03-31T15:15:18.609Z,22.53
2023-03-31T15:18:35.617Z,22.56
2023-03-31T15:21:47.252Z,22.63
2023-03-31T15:24:57.896Z,22.62
2023-03-31T15:28:10.536Z,22.63
2023-03-31T15:31:16.691Z,22.63
2023-03-31T15:34:35.898Z,22.65
2023-03-31T15:37:45.586Z,22.64
2023-03-31T15:40:59.012Z,22.62
2023-03-31T15:44:10.695Z,22.65
2023-03-31T15:47:25.561Z,22.62
2023-03-31T15:50:38.126Z,22.80
2023-03-31T15:53:55.409Z,22.81
2023-03-31T15:57:03.819Z,22.81
2023-03-31T16:00:09.338Z,22.81
2023-03-31T16:03:27.024Z,22.81
2023-03-31T16:06:42.106Z,22.81
2023-03-31T16:09:56.720Z,22.78
2023-03-31T16:13:10.280Z,22.72
2023-03-31T16:16:20.516Z,22.68
2023-03-31T16:19:30.852Z,22.68
2023-03-31T16:22:46.272Z,22.59
2023-03-31T16:25:55.010Z,22.62
2023-03-31T16:29:03.353Z,22.61
2023-03-31T16:32:16.248Z,22.60
2023-03-31T16:35:25.116Z,22.56
2023-03-31T16:38:35.079Z,22.55
2023-03-31T16:41:42.074Z,22.52
2023-03-31T16:44:59.992Z,22.50
2023-03-31T16:48:17.067Z,22.44
2023-03-31T16:51:26.007Z,22.43
2023-03-31T16:54:35.697Z,22.34
2023-03-31T16:57:40.569Z,22.40
2023-03-31T17:00:48.580Z,22.39
2023-03-31T17:03:55.518Z,22.37
2023-03-31T17:07:02.088Z,22.06
2023-03-31T17:10:12.971Z,22.36
2023-03-31T17:13:17.480Z,22.41
2023-03-31T17:19:46.604Z,22.52
2023-03-31T17:22:52.589Z,22.53
2023-03-31T17:25:59.397Z,22.54
2023-03-31T17:29:05.639Z,22.54
2023-03-31T17:32:11.545Z,22.54
2023-03-31T17:35:20.812Z,22.53
2023-03-31T17:38:25.592Z,22.56
2023-03-31T17:41:33.145Z,22.52
2023-03-31T17:44:36.921Z,22.56
2023-03-31T17:47:42.692Z,22.55
2023-03-31T17:50:46.973Z,22.56
2023-03-31T17:53:51.611Z,22.57
2023-03-31T17:57:00.799Z,22.56
2023-03-31T18:00:04.885Z,22.47
2023-03-31T18:03:08.347Z,22.40
2023-03-31T18:06:13.244Z,22.32
2023-03-31T18:09:16.944Z,22.30
2023-03-31T18:12:21.796Z,22.28
2023-03-31T18:15:25.868Z,22.25
2023-03-31T18:18:29.506Z,22.21
2023-03-31T18:21:33.323Z,22.20
2023-03-31T18:24:38.742Z,22.19
2023-03-31T18:27:43.764Z,22.14
2023-03-31T18:30:48.791Z,22.10
2023-03-31T18:33:56.574Z,22.09
2023-03-31T18:37:05.065Z,21.99
2023-03-31T18:40:10.070Z,22.07
2023-03-31T18:43:16.394Z,22.10
2023-03-31T18:46:24.885Z,22.14
2023-03-31T18:49:30.435Z,22.15
2023-03-31T18:52:38.937Z,22.15
2023-03-31T18:55:45.623Z,22.15
2023-03-31T18:58:51.221Z,22.17
2023-03-31T19:01:58.704Z,22.17
2023-03-31T19:05:03.045Z,22.16
2023-03-31T19:08:10.190Z,22.15
2023-03-31T19:11:17.679Z,22.17
2023-03-31T19:14:25.869Z,22.18
2023-03-31T19:17:33.617Z,22.16
2023-03-31T19:20:39.128Z,22.16
2023-03-31T19:23:44.800Z,22.11
2023-03-31T19:26:54.437Z,22.10
2023-03-31T19:30:02.700Z,22.16
2023-03-31T19:33:09.341Z,22.17
2023-03-31T19:36:16.197Z,22.16
2023-03-31T19:39:21.224Z,22.16
2023-03-31T19:42:28.721Z,22.17
2023-03-31T19:45:40.860Z,22.15
2023-03-31T19:48:45.905Z,22.16
2023-03-31T19:51:53.223Z,22.15
2023-03-31T19:55:02.416Z,22.16
2023-03-31T19:58:10.154Z,22.15
2023-03-31T20:01:22.160Z,22.20
2023-03-31T20:04:30.321Z,22.16
2023-03-31T20:07:38.261Z,22.16
2023-03-31T20:10:47.483Z,22.13
2023-03-31T20:13:54.858Z,22.10
2023-03-31T20:17:06.081Z,22.10
2023-03-31T20:20:15.575Z,22.09
2023-03-31T20:23:21.288Z,22.07
2023-03-31T20:26:31.889Z,22.07
2023-03-31T20:29:38.959Z,22.07
2023-03-31T20:32:49.233Z,22.04
2023-03-31T20:36:08.580Z,22.06
2023-03-31T20:39:19.135Z,22.06
2023-03-31T20:42:27.883Z,22.05
2023-03-31T20:45:35.512Z,22.04
2023-03-31T20:48:46.793Z,22.03
2023-03-31T20:51:54.905Z,22.03
2023-03-31T20:55:04.855Z,22.02
2023-03-31T20:58:09.682Z,22.02
2023-03-31T21:01:17.715Z,22.02
2023-03-31T21:04:29.331Z,22.01
2023-03-31T21:07:40.808Z,22.01
2023-03-31T21:10:51.739Z,22.01
2023-03-31T21:13:57.833Z,21.94
2023-03-31T21:17:07.437Z,22.00
2023-03-31T21:20:18.537Z,21.98
2023-03-31T21:23:25.322Z,21.96
2023-03-31T21:26:33.701Z,22.02
2023-03-31T21:29:42.311Z,21.99
2023-03-31T21:32:51.601Z,22.00
2023-03-31T21:36:03.188Z,22.01
2023-03-31T21:39:12.669Z,22.01
2023-03-31T21:42:20.742Z,22.01
2023-03-31T21:45:31.323Z,22.00
2023-03-31T21:48:40.624Z,22.00
2023-03-31T21:51:51.210Z,21.98
2023-03-31T21:55:01.812Z,21.98
2023-03-31T21:58:07.576Z,21.99
2023-03-31T22:01:14.194Z,21.99
2023-03-31T22:04:19.978Z,21.99
2023-03-31T22:07:27.087Z,21.98
2023-03-31T22:10:36.861Z,21.98
2023-03-31T22:13:48.253Z,21.97
2023-03-31T22:16:57.535Z,21.97
2023-03-31T22:20:08.677Z,21.97
2023-03-31T22:23:21.009Z,21.92
2023-03-31T22:26:32.452Z,21.90
2023-03-31T22:29:39.859Z,21.96
2023-03-31T22:32:49.344Z,21.93
2023-03-31T22:35:59.285Z,21.89
2023-03-31T22:39:13.612Z,21.95
2023-03-31T22:42:22.238Z,21.95
2023-03-31T22:45:33.469Z,21.95
2023-03-31T22:48:43.911Z,21.94
2023-03-31T22:51:50.575Z,21.96
2023-03-31T22:55:00.731Z,21.92
2023-03-31T22:58:09.084Z,21.83
2023-03-31T23:01:18.389Z,21.88
2023-03-31T23:04:27.047Z,21.93
2023-03-31T23:07:36.604Z,21.93
2023-03-31T23:10:48.903Z,21.95
2023-03-31T23:13:56.464Z,21.86
2023-03-31T23:17:06.372Z,21.92
2023-03-31T23:20:15.599Z,21.93
2023-03-31T23:23:26.352Z,21.93
2023-03-31T23:26:37.086Z,21.93
2023-03-31T23:29:48.574Z,21.92
2023-03-31T23:32:55.522Z,21.92
2023-03-31T23:36:07.850Z,21.89
2023-03-31T23:39:16.520Z,21.91
2023-03-31T23:42:27.697Z,21.91
2023-03-31T23:45:38.029Z,21.92
2023-03-31T23:48:43.660Z,21.92
2023-03-31T23:51:49.002Z,21.93
2023-03-31T23:54:53.149Z,21.91
2023-03-31T23:58:00.476Z,21.92
